sensor_id;sensor_type;location;lat;lon;timestamp;temperature;humidity
65692;DHT22;52411;52.716;6.696;2022-07-23T00:00:00;14.80;99.90
65692;DHT22;52411;52.716;6.696;2022-07-23T00:02:26;14.80;99.90
65692;DHT22;52411;52.716;6.696;2022-07-23T00:04:51;14.80;99.90
65692;DHT22;52411;52.716;6.696;2022-07-23T00:07:17;14.70;99.90
65692;DHT22;52411;52.716;6.696;2022-07-23T00:09:43;14.70;99.90
65692;DHT22;52411;52.716;6.696;2022-07-23T00:12:08;14.60;99.90
65692;DHT22;52411;52.716;6.696;2022-07-23T00:14:34;14.50;99.90
65692;DHT22;52411;52.716;6.696;2022-07-23T00:17:00;14.50;99.90
65692;DHT22;52411;52.716;6.696;2022-07-23T00:19:25;14.40;99.90
65692;DHT22;52411;52.716;6.696;2022-07-23T00:21:51;14.30;99.90
65692;DHT22;52411;52.716;6.696;2022-07-23T00:24:16;14.30;99.90
65692;DHT22;52411;52.716;6.696;2022-07-23T00:26:42;14.30;99.90
65692;DHT22;52411;52.716;6.696;2022-07-23T00:29:08;14.20;99.90
65692;DHT22;52411;52.716;6.696;2022-07-23T00:31:33;14.20;99.90
65692;DHT22;52411;52.716;6.696;2022-07-23T00:33:59;14.10;99.90
65692;DHT22;52411;52.716;6.696;2022-07-23T00:36:27;14.10;99.90
65692;DHT22;52411;52.716;6.696;2022-07-23T00:38:53;14.00;99.90
65692;DHT22;52411;52.716;6.696;2022-07-23T00:41:19;13.90;99.90
65692;DHT22;52411;52.716;6.696;2022-07-23T00:43:45;13.90;99.90
65692;DHT22;52411;52.716;6.696;2022-07-23T00:46:10;13.90;99.90
65692;DHT22;52411;52.716;6.696;2022-07-23T00:48:36;13.90;99.90
65692;DHT22;52411;52.716;6.696;2022-07-23T00:51:02;13.90;99.90
65692;DHT22;52411;52.716;6.696;2022-07-23T00:53:28;13.80;99.90
65692;DHT22;52411;52.716;6.696;2022-07-23T00:55:54;13.80;99.90
65692;DHT22;52411;52.716;6.696;2022-07-23T00:58:20;13.80;99.90
65692;DHT22;52411;52.716;6.696;2022-07-23T01:00:46;13.80;99.90
65692;DHT22;52411;52.716;6.696;2022-07-23T01:03:11;13.80;99.90
65692;DHT22;52411;52.716;6.696;2022-07-23T01:05:37;13.80;99.90
65692;DHT22;52411;52.716;6.696;2022-07-23T01:08:05;13.80;99.90
65692;DHT22;52411;52.716;6.696;2022-07-23T01:10:31;13.90;99.90
65692;DHT22;52411;52.716;6.696;2022-07-23T01:13:07;13.90;99.90
65692;DHT22;52411;52.716;6.696;2022-07-23T01:15:34;13.80;99.90
65692;DHT22;52411;52.716;6.696;2022-07-23T01:18:01;13.80;99.90
65692;DHT22;52411;52.716;6.696;2022-07-23T01:20:27;13.80;99.90
65692;DHT22;52411;52.716;6.696;2022-07-23T01:22:53;13.70;99.90
65692;DHT22;52411;52.716;6.696;2022-07-23T01:25:19;13.80;99.90
65692;DHT22;52411;52.716;6.696;2022-07-23T01:27:45;13.80;99.90
65692;DHT22;52411;52.716;6.696;2022-07-23T01:30:12;13.90;99.90
65692;DHT22;52411;52.716;6.696;2022-07-23T01:32:38;13.90;99.90
65692;DHT22;52411;52.716;6.696;2022-07-23T01:35:04;13.80;99.90
65692;DHT22;52411;52.716;6.696;2022-07-23T01:37:31;13.80;99.90
65692;DHT22;52411;52.716;6.696;2022-07-23T01:39:57;13.80;99.90
65692;DHT22;52411;52.716;6.696;2022-07-23T01:42:23;13.70;99.90
65692;DHT22;52411;52.716;6.696;2022-07-23T01:44:49;13.60;99.90
65692;DHT22;52411;52.716;6.696;2022-07-23T01:47:15;13.60;99.90
65692;DHT22;52411;52.716;6.696;2022-07-23T01:49:40;13.60;99.90
65692;DHT22;52411;52.716;6.696;2022-07-23T01:52:06;13.50;99.90
65692;DHT22;52411;52.716;6.696;2022-07-23T01:54:37;13.50;99.90
65692;DHT22;52411;52.716;6.696;2022-07-23T01:57:03;13.40;99.90
65692;DHT22;52411;52.716;6.696;2022-07-23T01:59:29;13.40;99.90
65692;DHT22;52411;52.716;6.696;2022-07-23T02:01:55;13.30;99.90
65692;DHT22;52411;52.716;6.696;2022-07-23T02:04:22;13.30;99.90
65692;DHT22;52411;52.716;6.696;2022-07-23T02:06:48;13.30;99.90
65692;DHT22;52411;52.716;6.696;2022-07-23T02:09:14;13.20;99.90
65692;DHT22;52411;52.716;6.696;2022-07-23T02:11:40;13.20;99.90
65692;DHT22;52411;52.716;6.696;2022-07-23T02:14:06;13.00;99.90
65692;DHT22;52411;52.716;6.696;2022-07-23T02:16:32;13.00;99.90
65692;DHT22;52411;52.716;6.696;2022-07-23T02:18:58;12.90;99.90
65692;DHT22;52411;52.716;6.696;2022-07-23T02:21:23;12.90;99.90
65692;DHT22;52411;52.716;6.696;2022-07-23T02:23:49;12.90;99.90
65692;DHT22;52411;52.716;6.696;2022-07-23T02:26:15;12.80;99.90
65692;DHT22;52411;52.716;6.696;2022-07-23T02:28:40;12.70;99.90
65692;DHT22;52411;52.716;6.696;2022-07-23T02:31:06;12.70;99.90
65692;DHT22;52411;52.716;6.696;2022-07-23T02:33:32;12.70;99.90
65692;DHT22;52411;52.716;6.696;2022-07-23T02:35:58;12.80;99.90
65692;DHT22;52411;52.716;6.696;2022-07-23T02:38:24;12.70;99.90
65692;DHT22;52411;52.716;6.696;2022-07-23T02:40:50;12.70;99.90
65692;DHT22;52411;52.716;6.696;2022-07-23T02:43:15;12.70;99.90
65692;DHT22;52411;52.716;6.696;2022-07-23T02:45:41;12.70;99.90
65692;DHT22;52411;52.716;6.696;2022-07-23T02:48:07;12.70;99.90
65692;DHT22;52411;52.716;6.696;2022-07-23T02:50:32;12.60;99.90
65692;DHT22;52411;52.716;6.696;2022-07-23T02:52:58;12.50;99.90
65692;DHT22;52411;52.716;6.696;2022-07-23T02:55:24;12.50;99.90
65692;DHT22;52411;52.716;6.696;2022-07-23T02:57:50;12.40;99.90
65692;DHT22;52411;52.716;6.696;2022-07-23T03:00:16;12.40;99.90
65692;DHT22;52411;52.716;6.696;2022-07-23T03:02:41;12.40;99.90
65692;DHT22;52411;52.716;6.696;2022-07-23T03:05:07;12.40;99.90
65692;DHT22;52411;52.716;6.696;2022-07-23T03:07:33;12.40;99.90
65692;DHT22;52411;52.716;6.696;2022-07-23T03:09:59;12.30;99.90
65692;DHT22;52411;52.716;6.696;2022-07-23T03:12:24;12.40;99.90
65692;DHT22;52411;52.716;6.696;2022-07-23T03:14:50;12.30;99.90
65692;DHT22;52411;52.716;6.696;2022-07-23T03:17:16;12.30;99.90
65692;DHT22;52411;52.716;6.696;2022-07-23T03:19:41;12.30;99.90
65692;DHT22;52411;52.716;6.696;2022-07-23T03:22:07;12.20;99.90
65692;DHT22;52411;52.716;6.696;2022-07-23T03:24:33;12.20;99.90
65692;DHT22;52411;52.716;6.696;2022-07-23T03:27:17;12.10;99.90
65692;DHT22;52411;52.716;6.696;2022-07-23T03:29:43;12.00;99.90
65692;DHT22;52411;52.716;6.696;2022-07-23T03:32:08;11.90;99.90
65692;DHT22;52411;52.716;6.696;2022-07-23T03:34:34;11.90;99.90
65692;DHT22;52411;52.716;6.696;2022-07-23T03:36:59;11.80;99.90
65692;DHT22;52411;52.716;6.696;2022-07-23T03:39:25;11.80;99.90
65692;DHT22;52411;52.716;6.696;2022-07-23T03:41:51;11.90;99.90
65692;DHT22;52411;52.716;6.696;2022-07-23T03:44:16;11.80;99.90
65692;DHT22;52411;52.716;6.696;2022-07-23T03:46:42;11.80;99.90
65692;DHT22;52411;52.716;6.696;2022-07-23T03:49:07;11.80;99.90
65692;DHT22;52411;52.716;6.696;2022-07-23T03:51:33;11.80;99.90
65692;DHT22;52411;52.716;6.696;2022-07-23T03:53:59;11.80;99.90
65692;DHT22;52411;52.716;6.696;2022-07-23T03:56:24;11.80;99.90
65692;DHT22;52411;52.716;6.696;2022-07-23T03:58:51;11.80;99.90
65692;DHT22;52411;52.716;6.696;2022-07-23T04:01:17;11.90;99.90
65692;DHT22;52411;52.716;6.696;2022-07-23T04:03:42;11.80;99.90
65692;DHT22;52411;52.716;6.696;2022-07-23T04:06:08;11.70;99.90
65692;DHT22;52411;52.716;6.696;2022-07-23T04:08:34;11.60;99.90
65692;DHT22;52411;52.716;6.696;2022-07-23T04:10:59;11.50;99.90
65692;DHT22;52411;52.716;6.696;2022-07-23T04:13:25;11.50;99.90
65692;DHT22;52411;52.716;6.696;2022-07-23T04:15:51;11.50;99.90
65692;DHT22;52411;52.716;6.696;2022-07-23T04:18:17;11.50;99.90
65692;DHT22;52411;52.716;6.696;2022-07-23T04:20:44;11.40;99.90
65692;DHT22;52411;52.716;6.696;2022-07-23T04:23:09;11.40;99.90
65692;DHT22;52411;52.716;6.696;2022-07-23T04:25:35;11.40;99.90
65692;DHT22;52411;52.716;6.696;2022-07-23T04:28:01;11.50;99.90
65692;DHT22;52411;52.716;6.696;2022-07-23T04:30:26;11.50;99.90
65692;DHT22;52411;52.716;6.696;2022-07-23T04:32:52;11.50;99.90
65692;DHT22;52411;52.716;6.696;2022-07-23T04:35:18;11.50;99.90
65692;DHT22;52411;52.716;6.696;2022-07-23T04:37:43;11.40;99.90
65692;DHT22;52411;52.716;6.696;2022-07-23T04:40:10;11.50;99.90
65692;DHT22;52411;52.716;6.696;2022-07-23T04:42:36;11.50;99.90
65692;DHT22;52411;52.716;6.696;2022-07-23T04:45:02;11.50;99.90
65692;DHT22;52411;52.716;6.696;2022-07-23T04:47:29;11.60;99.90
65692;DHT22;52411;52.716;6.696;2022-07-23T04:49:56;11.70;99.90
65692;DHT22;52411;52.716;6.696;2022-07-23T04:52:22;11.80;99.90
65692;DHT22;52411;52.716;6.696;2022-07-23T04:54:48;11.90;99.90
65692;DHT22;52411;52.716;6.696;2022-07-23T04:57:13;12.00;99.90
65692;DHT22;52411;52.716;6.696;2022-07-23T04:59:39;12.20;99.90
65692;DHT22;52411;52.716;6.696;2022-07-23T05:02:05;12.20;99.90
65692;DHT22;52411;52.716;6.696;2022-07-23T05:04:30;12.30;99.90
65692;DHT22;52411;52.716;6.696;2022-07-23T05:06:57;12.40;99.90
65692;DHT22;52411;52.716;6.696;2022-07-23T05:09:22;12.50;99.90
65692;DHT22;52411;52.716;6.696;2022-07-23T05:11:48;12.60;99.90
65692;DHT22;52411;52.716;6.696;2022-07-23T05:14:14;12.70;99.90
65692;DHT22;52411;52.716;6.696;2022-07-23T05:16:39;12.80;99.90
65692;DHT22;52411;52.716;6.696;2022-07-23T05:21:40;13.00;99.90
65692;DHT22;52411;52.716;6.696;2022-07-23T05:24:06;13.10;99.90
65692;DHT22;52411;52.716;6.696;2022-07-23T05:39:29;13.40;99.90
65692;DHT22;52411;52.716;6.696;2022-07-23T05:41:55;13.50;99.90
65692;DHT22;52411;52.716;6.696;2022-07-23T05:44:20;13.60;99.90
65692;DHT22;52411;52.716;6.696;2022-07-23T05:46:46;13.60;99.90
65692;DHT22;52411;52.716;6.696;2022-07-23T06:02:08;14.20;99.90
65692;DHT22;52411;52.716;6.696;2022-07-23T06:04:34;14.30;99.90
65692;DHT22;52411;52.716;6.696;2022-07-23T06:07:00;14.40;99.90
65692;DHT22;52411;52.716;6.696;2022-07-23T06:20:14;14.80;99.90
65692;DHT22;52411;52.716;6.696;2022-07-23T06:27:51;15.00;99.90
65692;DHT22;52411;52.716;6.696;2022-07-23T06:38:32;15.20;99.90
65692;DHT22;52411;52.716;6.696;2022-07-23T06:40:57;15.30;99.90
65692;DHT22;52411;52.716;6.696;2022-07-23T06:43:23;15.30;99.90
65692;DHT22;52411;52.716;6.696;2022-07-23T06:45:49;15.40;99.90
65692;DHT22;52411;52.716;6.696;2022-07-23T07:01:11;15.80;99.90
65692;DHT22;52411;52.716;6.696;2022-07-23T07:03:37;15.90;99.90
65692;DHT22;52411;52.716;6.696;2022-07-23T07:06:03;15.90;99.90
65692;DHT22;52411;52.716;6.696;2022-07-23T07:08:28;16.00;99.90
65692;DHT22;52411;52.716;6.696;2022-07-23T07:10:54;16.10;99.90
65692;DHT22;52411;52.716;6.696;2022-07-23T07:23:41;16.50;99.90
65692;DHT22;52411;52.716;6.696;2022-07-23T07:26:07;16.60;99.90
65692;DHT22;52411;52.716;6.696;2022-07-23T07:28:32;16.60;99.90
65692;DHT22;52411;52.716;6.696;2022-07-23T07:30:58;16.60;99.90
65692;DHT22;52411;52.716;6.696;2022-07-23T07:33:24;16.60;99.90
65692;DHT22;52411;52.716;6.696;2022-07-23T07:35:49;16.70;99.90
65692;DHT22;52411;52.716;6.696;2022-07-23T07:38:15;16.80;99.90
65692;DHT22;52411;52.716;6.696;2022-07-23T07:40:41;16.90;99.90
65692;DHT22;52411;52.716;6.696;2022-07-23T07:43:06;16.90;99.90
65692;DHT22;52411;52.716;6.696;2022-07-23T07:45:32;16.90;99.90
65692;DHT22;52411;52.716;6.696;2022-07-23T07:47:58;17.00;99.90
65692;DHT22;52411;52.716;6.696;2022-07-23T07:50:23;17.10;99.90
65692;DHT22;52411;52.716;6.696;2022-07-23T07:52:49;17.20;99.90
65692;DHT22;52411;52.716;6.696;2022-07-23T07:55:15;17.30;99.90
65692;DHT22;52411;52.716;6.696;2022-07-23T07:57:41;17.40;99.90
65692;DHT22;52411;52.716;6.696;2022-07-23T08:00:09;17.50;99.90
65692;DHT22;52411;52.716;6.696;2022-07-23T08:02:51;17.60;99.90
65692;DHT22;52411;52.716;6.696;2022-07-23T08:05:26;17.70;99.90
65692;DHT22;52411;52.716;6.696;2022-07-23T08:07:52;17.80;99.90
65692;DHT22;52411;52.716;6.696;2022-07-23T08:10:18;17.90;99.90
65692;DHT22;52411;52.716;6.696;2022-07-23T08:12:46;17.90;99.90
65692;DHT22;52411;52.716;6.696;2022-07-23T08:15:14;18.00;99.90
65692;DHT22;52411;52.716;6.696;2022-07-23T08:17:41;18.10;99.90
65692;DHT22;52411;52.716;6.696;2022-07-23T08:20:09;18.20;99.90
65692;DHT22;52411;52.716;6.696;2022-07-23T08:23:03;18.10;99.90
65692;DHT22;52411;52.716;6.696;2022-07-23T08:25:32;18.10;99.90
65692;DHT22;52411;52.716;6.696;2022-07-23T08:27:59;18.10;99.90
65692;DHT22;52411;52.716;6.696;2022-07-23T08:30:26;18.30;99.90
65692;DHT22;52411;52.716;6.696;2022-07-23T08:33:03;18.30;99.90
65692;DHT22;52411;52.716;6.696;2022-07-23T08:35:34;18.40;99.90
65692;DHT22;52411;52.716;6.696;2022-07-23T08:38:02;18.60;99.90
65692;DHT22;52411;52.716;6.696;2022-07-23T08:40:30;18.80;99.90
65692;DHT22;52411;52.716;6.696;2022-07-23T08:42:56;18.80;99.90
65692;DHT22;52411;52.716;6.696;2022-07-23T08:45:23;18.90;99.90
65692;DHT22;52411;52.716;6.696;2022-07-23T08:47:52;19.00;99.90
65692;DHT22;52411;52.716;6.696;2022-07-23T08:50:19;18.90;99.90
65692;DHT22;52411;52.716;6.696;2022-07-23T08:52:45;18.70;99.90
65692;DHT22;52411;52.716;6.696;2022-07-23T08:55:11;18.60;99.90
65692;DHT22;52411;52.716;6.696;2022-07-23T08:57:36;18.70;99.90
65692;DHT22;52411;52.716;6.696;2022-07-23T09:00:04;18.90;99.90
65692;DHT22;52411;52.716;6.696;2022-07-23T09:02:30;19.30;99.90
65692;DHT22;52411;52.716;6.696;2022-07-23T09:04:56;19.50;99.90
65692;DHT22;52411;52.716;6.696;2022-07-23T09:07:21;19.50;99.90
65692;DHT22;52411;52.716;6.696;2022-07-23T09:09:47;19.60;99.90
65692;DHT22;52411;52.716;6.696;2022-07-23T09:12:18;19.60;99.90
65692;DHT22;52411;52.716;6.696;2022-07-23T09:14:45;19.70;99.90
65692;DHT22;52411;52.716;6.696;2022-07-23T09:17:16;19.70;99.90
65692;DHT22;52411;52.716;6.696;2022-07-23T09:19:43;19.70;99.90
65692;DHT22;52411;52.716;6.696;2022-07-23T09:22:23;19.60;99.90
65692;DHT22;52411;52.716;6.696;2022-07-23T09:25:15;19.50;99.90
65692;DHT22;52411;52.716;6.696;2022-07-23T09:27:55;19.40;99.90
65692;DHT22;52411;52.716;6.696;2022-07-23T09:30:23;19.70;99.90
65692;DHT22;52411;52.716;6.696;2022-07-23T09:35:54;19.80;99.90
65692;DHT22;52411;52.716;6.696;2022-07-23T09:38:24;19.90;99.90
65692;DHT22;52411;52.716;6.696;2022-07-23T09:41:09;19.70;99.90
65692;DHT22;52411;52.716;6.696;2022-07-23T09:43:35;19.60;99.90
65692;DHT22;52411;52.716;6.696;2022-07-23T09:48:43;19.60;99.90
65692;DHT22;52411;52.716;6.696;2022-07-23T09:51:09;20.10;99.90
65692;DHT22;52411;52.716;6.696;2022-07-23T09:53:34;20.40;99.90
65692;DHT22;52411;52.716;6.696;2022-07-23T09:56:00;20.60;99.90
65692;DHT22;52411;52.716;6.696;2022-07-23T09:58:27;20.50;99.90
65692;DHT22;52411;52.716;6.696;2022-07-23T10:00:54;20.30;99.90
65692;DHT22;52411;52.716;6.696;2022-07-23T10:03:21;20.30;99.90
65692;DHT22;52411;52.716;6.696;2022-07-23T10:05:49;20.30;99.90
65692;DHT22;52411;52.716;6.696;2022-07-23T10:08:17;20.40;99.90
65692;DHT22;52411;52.716;6.696;2022-07-23T10:10:45;20.30;99.90
65692;DHT22;52411;52.716;6.696;2022-07-23T10:13:11;20.10;99.90
65692;DHT22;52411;52.716;6.696;2022-07-23T10:15:55;20.00;99.90
65692;DHT22;52411;52.716;6.696;2022-07-23T10:18:21;20.20;99.90
65692;DHT22;52411;52.716;6.696;2022-07-23T10:20:48;20.20;99.90
65692;DHT22;52411;52.716;6.696;2022-07-23T10:23:30;20.20;99.90
65692;DHT22;52411;52.716;6.696;2022-07-23T10:26:24;20.30;99.90
65692;DHT22;52411;52.716;6.696;2022-07-23T10:32:04;20.70;99.90
65692;DHT22;52411;52.716;6.696;2022-07-23T10:34:54;20.60;99.90
65692;DHT22;52411;52.716;6.696;2022-07-23T10:37:26;20.70;99.90
65692;DHT22;52411;52.716;6.696;2022-07-23T10:40:19;20.70;99.90
65692;DHT22;52411;52.716;6.696;2022-07-23T10:42:48;20.70;99.90
65692;DHT22;52411;52.716;6.696;2022-07-23T10:45:27;20.60;99.90
65692;DHT22;52411;52.716;6.696;2022-07-23T10:47:54;20.60;99.90
65692;DHT22;52411;52.716;6.696;2022-07-23T10:50:25;20.70;99.90
65692;DHT22;52411;52.716;6.696;2022-07-23T10:57:56;20.90;99.90
65692;DHT22;52411;52.716;6.696;2022-07-23T11:00:24;21.10;99.00
65692;DHT22;52411;52.716;6.696;2022-07-23T11:02:55;21.20;99.40
65692;DHT22;52411;52.716;6.696;2022-07-23T11:05:23;21.30;99.90
65692;DHT22;52411;52.716;6.696;2022-07-23T11:10:35;21.60;99.00
65692;DHT22;52411;52.716;6.696;2022-07-23T11:16:04;22.00;97.00
65692;DHT22;52411;52.716;6.696;2022-07-23T11:18:54;22.00;95.80
65692;DHT22;52411;52.716;6.696;2022-07-23T11:24:12;21.80;98.40
65692;DHT22;52411;52.716;6.696;2022-07-23T11:32:07;22.20;96.50
65692;DHT22;52411;52.716;6.696;2022-07-23T11:34:35;22.30;96.40
65692;DHT22;52411;52.716;6.696;2022-07-23T11:37:06;22.20;97.90
65692;DHT22;52411;52.716;6.696;2022-07-23T11:39:33;22.10;97.40
65692;DHT22;52411;52.716;6.696;2022-07-23T11:41:59;22.20;98.10
65692;DHT22;52411;52.716;6.696;2022-07-23T11:44:31;22.20;98.10
65692;DHT22;52411;52.716;6.696;2022-07-23T11:47:02;22.20;96.90
65692;DHT22;52411;52.716;6.696;2022-07-23T11:49:28;22.40;97.70
65692;DHT22;52411;52.716;6.696;2022-07-23T11:52:10;22.20;97.90
65692;DHT22;52411;52.716;6.696;2022-07-23T11:54:57;22.00;97.20
65692;DHT22;52411;52.716;6.696;2022-07-23T11:57:32;21.90;95.70
65692;DHT22;52411;52.716;6.696;2022-07-23T12:00:11;22.00;97.90
65692;DHT22;52411;52.716;6.696;2022-07-23T12:02:42;22.00;97.80
65692;DHT22;52411;52.716;6.696;2022-07-23T12:05:16;21.90;98.00
65692;DHT22;52411;52.716;6.696;2022-07-23T12:07:46;21.90;97.40
65692;DHT22;52411;52.716;6.696;2022-07-23T12:10:17;22.10;98.00
65692;DHT22;52411;52.716;6.696;2022-07-23T12:12:45;22.20;97.80
65692;DHT22;52411;52.716;6.696;2022-07-23T12:15:13;22.30;98.00
65692;DHT22;52411;52.716;6.696;2022-07-23T12:17:40;22.30;98.30
65692;DHT22;52411;52.716;6.696;2022-07-23T12:20:09;22.20;97.60
65692;DHT22;52411;52.716;6.696;2022-07-23T12:22:43;22.40;97.90
65692;DHT22;52411;52.716;6.696;2022-07-23T12:25:15;22.50;96.90
65692;DHT22;52411;52.716;6.696;2022-07-23T12:27:41;22.30;97.10
65692;DHT22;52411;52.716;6.696;2022-07-23T12:30:21;22.10;97.70
65692;DHT22;52411;52.716;6.696;2022-07-23T12:32:49;22.20;97.40
65692;DHT22;52411;52.716;6.696;2022-07-23T12:35:15;22.60;97.60
65692;DHT22;52411;52.716;6.696;2022-07-23T12:37:44;22.60;97.10
65692;DHT22;52411;52.716;6.696;2022-07-23T12:42:55;22.50;96.10
65692;DHT22;52411;52.716;6.696;2022-07-23T12:45:22;22.30;95.70
65692;DHT22;52411;52.716;6.696;2022-07-23T12:53:17;22.90;95.20
65692;DHT22;52411;52.716;6.696;2022-07-23T12:55:44;23.00;96.90
65692;DHT22;52411;52.716;6.696;2022-07-23T13:03:33;23.40;94.90
65692;DHT22;52411;52.716;6.696;2022-07-23T13:05:59;23.60;95.30
65692;DHT22;52411;52.716;6.696;2022-07-23T13:08:28;23.50;95.50
65692;DHT22;52411;52.716;6.696;2022-07-23T13:10:54;23.60;95.40
65692;DHT22;52411;52.716;6.696;2022-07-23T13:13:22;23.80;95.10
65692;DHT22;52411;52.716;6.696;2022-07-23T13:15:50;24.00;94.90
65692;DHT22;52411;52.716;6.696;2022-07-23T13:18:17;24.20;95.30
65692;DHT22;52411;52.716;6.696;2022-07-23T13:20:44;24.30;94.80
65692;DHT22;52411;52.716;6.696;2022-07-23T13:23:10;24.40;94.50
65692;DHT22;52411;52.716;6.696;2022-07-23T13:25:36;24.50;94.50
65692;DHT22;52411;52.716;6.696;2022-07-23T13:28:02;24.80;94.90
65692;DHT22;52411;52.716;6.696;2022-07-23T13:30:28;24.70;94.60
65692;DHT22;52411;52.716;6.696;2022-07-23T13:48:27;24.60;95.50
65692;DHT22;52411;52.716;6.696;2022-07-23T14:14:12;25.50;94.00
65692;DHT22;52411;52.716;6.696;2022-07-23T14:16:38;25.50;93.80
65692;DHT22;52411;52.716;6.696;2022-07-23T14:21:39;25.60;93.20
65692;DHT22;52411;52.716;6.696;2022-07-23T14:24:05;25.70;94.00
65692;DHT22;52411;52.716;6.696;2022-07-23T14:26:31;25.40;93.90
65692;DHT22;52411;52.716;6.696;2022-07-23T14:34:07;25.30;93.80
65692;DHT22;52411;52.716;6.696;2022-07-23T14:36:33;25.70;93.50
65692;DHT22;52411;52.716;6.696;2022-07-23T14:44:09;27.10;92.40
65692;DHT22;52411;52.716;6.696;2022-07-23T14:51:45;27.30;90.40
65692;DHT22;52411;52.716;6.696;2022-07-23T14:54:11;27.50;90.10
65692;DHT22;52411;52.716;6.696;2022-07-23T14:56:37;27.80;89.80
65692;DHT22;52411;52.716;6.696;2022-07-23T14:59:04;28.00;88.70
65692;DHT22;52411;52.716;6.696;2022-07-23T15:09:08;28.90;86.70
65692;DHT22;52411;52.716;6.696;2022-07-23T16:24:05;30.00;71.30
65692;DHT22;52411;52.716;6.696;2022-07-23T16:34:17;31.50;67.80
65692;DHT22;52411;52.716;6.696;2022-07-23T16:36:43;31.40;65.90
65692;DHT22;52411;52.716;6.696;2022-07-23T16:39:09;31.50;64.80
65692;DHT22;52411;52.716;6.696;2022-07-23T16:44:10;31.10;62.80
65692;DHT22;52411;52.716;6.696;2022-07-23T16:46:35;31.20;63.40
65692;DHT22;52411;52.716;6.696;2022-07-23T16:49:01;31.40;62.70
65692;DHT22;52411;52.716;6.696;2022-07-23T16:51:27;31.90;62.80
65692;DHT22;52411;52.716;6.696;2022-07-23T16:53:53;31.50;62.10
65692;DHT22;52411;52.716;6.696;2022-07-23T16:58:49;30.30;62.00
65692;DHT22;52411;52.716;6.696;2022-07-23T17:01:15;29.80;61.10
65692;DHT22;52411;52.716;6.696;2022-07-23T17:03:41;29.40;62.40
65692;DHT22;52411;52.716;6.696;2022-07-23T17:06:07;29.10;63.20
65692;DHT22;52411;52.716;6.696;2022-07-23T17:08:33;28.90;63.00
65692;DHT22;52411;52.716;6.696;2022-07-23T17:10:59;29.50;62.80
65692;DHT22;52411;52.716;6.696;2022-07-23T17:13:25;30.20;62.20
65692;DHT22;52411;52.716;6.696;2022-07-23T17:15:52;30.60;61.80
65692;DHT22;52411;52.716;6.696;2022-07-23T17:18:17;31.00;61.40
65692;DHT22;52411;52.716;6.696;2022-07-23T17:20:43;31.20;61.60
65692;DHT22;52411;52.716;6.696;2022-07-23T17:25:44;31.80;62.90
65692;DHT22;52411;52.716;6.696;2022-07-23T17:33:48;31.90;62.30
65692;DHT22;52411;52.716;6.696;2022-07-23T17:41:56;31.20;61.10
65692;DHT22;52411;52.716;6.696;2022-07-23T17:44:22;31.50;60.70
65692;DHT22;52411;52.716;6.696;2022-07-23T17:46:48;31.40;61.00
65692;DHT22;52411;52.716;6.696;2022-07-23T17:52:25;30.50;56.10
65692;DHT22;52411;52.716;6.696;2022-07-23T17:57:19;30.50;60.00
65692;DHT22;52411;52.716;6.696;2022-07-23T17:59:45;30.70;60.20
65692;DHT22;52411;52.716;6.696;2022-07-23T18:12:33;30.20;60.60
65692;DHT22;52411;52.716;6.696;2022-07-23T18:26:11;29.00;62.70
65692;DHT22;52411;52.716;6.696;2022-07-23T18:28:37;28.40;64.50
65692;DHT22;52411;52.716;6.696;2022-07-23T18:31:02;27.90;65.20
65692;DHT22;52411;52.716;6.696;2022-07-23T18:36:04;26.90;66.20
65692;DHT22;52411;52.716;6.696;2022-07-23T18:41:05;26.00;67.90
65692;DHT22;52411;52.716;6.696;2022-07-23T18:43:32;25.80;69.30
65692;DHT22;52411;52.716;6.696;2022-07-23T18:45:58;25.50;71.10
65692;DHT22;52411;52.716;6.696;2022-07-23T18:48:27;25.30;71.50
65692;DHT22;52411;52.716;6.696;2022-07-23T18:50:52;25.00;74.60
65692;DHT22;52411;52.716;6.696;2022-07-23T18:53:18;24.90;83.30
65692;DHT22;52411;52.716;6.696;2022-07-23T18:55:44;24.60;89.60
65692;DHT22;52411;52.716;6.696;2022-07-23T18:58:09;24.30;91.90
65692;DHT22;52411;52.716;6.696;2022-07-23T19:00:36;24.20;93.50
65692;DHT22;52411;52.716;6.696;2022-07-23T19:03:03;24.00;94.00
65692;DHT22;52411;52.716;6.696;2022-07-23T19:05:29;23.80;94.20
65692;DHT22;52411;52.716;6.696;2022-07-23T19:07:54;23.70;94.50
65692;DHT22;52411;52.716;6.696;2022-07-23T19:10:21;23.50;94.70
65692;DHT22;52411;52.716;6.696;2022-07-23T19:15:20;23.30;95.20
65692;DHT22;52411;52.716;6.696;2022-07-23T19:17:45;23.20;95.50
65692;DHT22;52411;52.716;6.696;2022-07-23T19:20:11;23.10;95.70
65692;DHT22;52411;52.716;6.696;2022-07-23T19:22:37;22.90;96.10
65692;DHT22;52411;52.716;6.696;2022-07-23T19:25:03;22.80;96.00
65692;DHT22;52411;52.716;6.696;2022-07-23T19:27:29;22.70;96.10
65692;DHT22;52411;52.716;6.696;2022-07-23T19:29:55;22.50;96.30
65692;DHT22;52411;52.716;6.696;2022-07-23T19:32:21;22.40;96.60
65692;DHT22;52411;52.716;6.696;2022-07-23T19:34:46;22.40;96.80
65692;DHT22;52411;52.716;6.696;2022-07-23T19:37:12;22.30;97.10
65692;DHT22;52411;52.716;6.696;2022-07-23T19:39:40;22.10;97.40
65692;DHT22;52411;52.716;6.696;2022-07-23T19:42:06;22.00;97.60
65692;DHT22;52411;52.716;6.696;2022-07-23T19:44:32;22.00;97.50
65692;DHT22;52411;52.716;6.696;2022-07-23T19:46:58;22.00;97.50
65692;DHT22;52411;52.716;6.696;2022-07-23T19:49:24;21.80;97.90
65692;DHT22;52411;52.716;6.696;2022-07-23T19:51:50;21.70;98.10
65692;DHT22;52411;52.716;6.696;2022-07-23T19:54:15;21.50;98.30
65692;DHT22;52411;52.716;6.696;2022-07-23T19:56:41;21.40;98.60
65692;DHT22;52411;52.716;6.696;2022-07-23T19:59:07;21.40;98.70
65692;DHT22;52411;52.716;6.696;2022-07-23T20:01:32;21.30;98.80
65692;DHT22;52411;52.716;6.696;2022-07-23T20:04:00;21.20;99.20
65692;DHT22;52411;52.716;6.696;2022-07-23T20:06:26;21.10;99.40
65692;DHT22;52411;52.716;6.696;2022-07-23T20:08:52;20.90;99.60
65692;DHT22;52411;52.716;6.696;2022-07-23T20:13:53;20.60;99.90
65692;DHT22;52411;52.716;6.696;2022-07-23T20:21:41;20.30;99.90
65692;DHT22;52411;52.716;6.696;2022-07-23T20:29:21;20.10;99.90
65692;DHT22;52411;52.716;6.696;2022-07-23T20:31:48;20.10;99.90
65692;DHT22;52411;52.716;6.696;2022-07-23T20:34:14;20.10;99.90
65692;DHT22;52411;52.716;6.696;2022-07-23T20:36:40;20.00;99.90
65692;DHT22;52411;52.716;6.696;2022-07-23T20:39:07;20.00;99.90
65692;DHT22;52411;52.716;6.696;2022-07-23T20:41:34;20.00;99.90
65692;DHT22;52411;52.716;6.696;2022-07-23T20:44:00;19.90;99.90
65692;DHT22;52411;52.716;6.696;2022-07-23T20:46:26;19.90;99.90
65692;DHT22;52411;52.716;6.696;2022-07-23T21:04:24;19.60;99.90
65692;DHT22;52411;52.716;6.696;2022-07-23T21:09:34;19.60;99.90
65692;DHT22;52411;52.716;6.696;2022-07-23T21:12:00;19.50;99.90
65692;DHT22;52411;52.716;6.696;2022-07-23T21:14:26;19.50;99.90
65692;DHT22;52411;52.716;6.696;2022-07-23T21:27:13;18.70;99.90